Time;durP1;ratioP1;P1;durP2;ratioP2;P2;SDS_P1;SDS_P2;PMS_P1;PMS_P2;Temp;Humidity;BMP_temperature;BMP_pressure;BME280_temperature;BME280_humidity;BME280_pressure;Samples;Min_cycle;Max_cycle;Signal;HPM_P1;HPM_P2
2022/12/12 00:01:23;;;;;;;14.30;9.15;;;;;;;7.30;100.00;95494.69;5063391;28;20143;-58
2022/12/12 00:03:49;;;;;;;21.15;14.30;;;;;;;7.38;100.00;95507.31;5063735;28;20141;-58
2022/12/12 00:06:17;;;;;;;13.70;8.35;;;;;;;7.47;100.00;95513.28;5063891;28;20060;-57
2022/12/12 00:08:43;;;;;;;11.32;7.50;;;;;;;7.20;100.00;95467.09;5063879;28;20056;-57
2022/12/12 00:11:11;;;;;;;11.07;6.00;;;;;;;7.51;100.00;95519.56;5064497;28;20563;-57
2022/12/12 00:13:38;;;;;;;14.88;7.55;;;;;;;7.51;100.00;95527.84;5062691;28;20136;-58
2022/12/12 00:16:07;;;;;;;13.02;7.00;;;;;;;7.20;100.00;95478.94;5056602;28;20054;-56
2022/12/12 00:18:38;;;;;;;19.10;10.00;;;;;;;7.46;100.00;95539.22;5063325;28;20132;-57
2022/12/12 00:21:07;;;;;;;28.38;13.85;;;;;;;7.52;100.00;95534.16;5064075;28;20121;-57
2022/12/12 00:23:34;;;;;;;16.20;8.45;;;;;;;7.57;100.00;95537.31;5064031;28;20078;-57
2022/12/12 00:26:05;;;;;;;13.45;6.70;;;;;;;7.69;100.00;95534.22;5064239;28;20131;-58
2022/12/12 00:28:32;;;;;;;14.65;7.18;;;;;;;7.60;100.00;95531.00;5063927;28;20084;-59
2022/12/12 00:30:59;;;;;;;9.10;5.65;;;;;;;7.63;100.00;95557.03;5063865;28;20155;-57
2022/12/12 00:33:25;;;;;;;8.80;4.82;;;;;;;7.11;100.00;95552.03;5063360;28;20055;-57
2022/12/12 00:35:54;;;;;;;6.70;3.92;;;;;;;7.33;100.00;95554.50;5063945;28;20086;-59
2022/12/12 00:38:23;;;;;;;7.95;4.07;;;;;;;7.22;100.00;95553.66;5062360;28;20132;-57
2022/12/12 00:40:55;;;;;;;6.88;4.43;;;;;;;7.03;100.00;95504.41;5063916;28;20132;-57
2022/12/12 00:43:23;;;;;;;7.03;4.33;;;;;;;7.37;100.00;95555.31;5063813;28;20477;-57
2022/12/12 00:45:50;;;;;;;9.90;5.35;;;;;;;7.65;100.00;95560.16;5063841;28;20061;-57
2022/12/12 00:48:17;;;;;;;10.27;4.63;;;;;;;7.22;100.00;95561.13;5062075;28;20063;-58
2022/12/12 00:50:43;;;;;;;14.13;4.85;;;;;;;7.46;100.00;95580.53;5066711;28;20487;-56
2022/12/12 00:53:10;;;;;;;8.93;4.75;;;;;;;6.56;100.00;95399.94;5067357;28;20131;-58
2022/12/12 00:55:37;;;;;;;10.23;5.93;;;;;;;7.70;100.00;95568.06;5067362;28;20572;-57
2022/12/12 00:58:03;;;;;;;15.77;8.02;;;;;;;7.46;100.00;95513.66;5067299;28;20110;-57
2022/12/12 01:00:31;;;;;;;11.55;6.53;;;;;;;7.85;100.00;95574.41;5067515;28;20143;-58
2022/12/12 01:02:58;;;;;;;17.95;9.65;;;;;;;7.92;100.00;95568.94;5065930;28;20052;-57
2022/12/12 01:05:26;;;;;;;14.57;7.80;;;;;;;7.88;100.00;95579.16;5067274;28;20163;-57
2022/12/12 01:07:52;;;;;;;36.70;20.58;;;;;;;7.84;100.00;95583.88;5065526;28;20155;-58
2022/12/12 01:10:19;;;;;;;17.73;11.25;;;;;;;7.85;100.00;95586.25;5067019;28;20063;-57
2022/12/12 01:12:46;;;;;;;15.13;7.55;;;;;;;7.93;100.00;95593.34;5067330;28;20127;-57
2022/12/12 01:15:12;;;;;;;11.15;6.53;;;;;;;7.79;100.00;95592.50;5067050;28;20424;-58
2022/12/12 01:17:40;;;;;;;12.05;6.93;;;;;;;7.89;100.00;95586.25;5066681;28;20059;-57
2022/12/12 01:20:20;;;;;;;13.63;7.10;;;;;;;7.87;100.00;95574.81;5056069;28;20053;-57
2022/12/12 01:22:47;;;;;;;14.20;7.78;;;;;;;7.93;100.00;95578.78;5067052;28;20060;-57
2022/12/12 01:25:15;;;;;;;15.60;7.20;;;;;;;8.02;100.00;95588.25;5066812;28;20143;-57
2022/12/12 01:27:44;;;;;;;13.00;7.82;;;;;;;8.06;100.00;95591.03;5066442;28;20187;-57
2022/12/12 01:30:14;;;;;;;16.00;8.73;;;;;;;8.04;100.00;95593.38;5065335;28;20106;-57
2022/12/12 01:32:41;;;;;;;17.75;10.07;;;;;;;8.15;100.00;95588.69;5066704;28;20144;-57
2022/12/12 01:35:08;;;;;;;16.42;8.43;;;;;;;8.15;100.00;95591.44;5066631;28;20140;-58
2022/12/12 01:37:38;;;;;;;15.63;8.02;;;;;;;8.17;100.00;95591.84;5065474;28;20083;-57
2022/12/12 01:40:08;;;;;;;14.25;7.82;;;;;;;8.11;100.00;95591.44;5066596;28;20127;-58
2022/12/12 01:42:35;;;;;;;14.15;6.40;;;;;;;8.07;100.00;95598.13;5066533;28;20106;-56
2022/12/12 01:45:02;;;;;;;10.52;5.97;;;;;;;8.19;100.00;95603.28;5066290;28;20052;-56
2022/12/12 01:47:28;;;;;;;8.73;5.63;;;;;;;8.24;100.00;95594.66;5066209;28;20140;-56
2022/12/12 01:50:04;;;;;;;8.27;5.03;;;;;;;8.31;100.00;95636.06;5066411;28;20586;-56
2022/12/12 01:52:38;;;;;;;10.15;4.50;;;;;;;8.37;100.00;95606.91;5066706;28;20133;-57
2022/12/12 01:55:06;;;;;;;11.45;4.72;;;;;;;8.31;100.00;95603.75;5066349;28;20480;-59
2022/12/12 01:57:39;;;;;;;10.80;5.78;;;;;;;8.43;100.00;95599.81;5064906;28;20503;-58
2022/12/12 02:00:08;;;;;;;20.02;9.57;;;;;;;8.48;100.00;95596.66;5066252;28;20539;-56
2022/12/12 02:02:36;;;;;;;16.35;8.40;;;;;;;8.34;100.00;95566.31;5066573;28;20580;-57
2022/12/12 02:05:13;;;;;;;17.50;10.00;;;;;;;8.57;100.00;95611.66;5066643;28;20420;-57
2022/12/12 02:07:40;;;;;;;22.52;9.77;;;;;;;7.64;100.00;95465.69;5064945;28;20181;-56
2022/12/12 02:10:07;;;;;;;17.70;9.40;;;;;;;8.65;100.00;95601.41;5066047;28;20092;-57
2022/12/12 02:12:33;;;;;;;14.00;7.40;;;;;;;7.76;100.00;95532.66;5097857;28;20417;-58
2022/12/12 02:15:01;;;;;;;11.57;6.68;;;;;;;8.30;100.00;95624.22;5065974;28;20106;-56
2022/12/12 02:17:46;;;;;;;13.43;6.68;;;;;;;8.35;100.00;95615.56;5064500;28;20127;-56
2022/12/12 02:20:40;;;;;;;13.05;6.43;;;;;;;8.30;100.00;95628.97;5065940;28;20131;-56
2022/12/12 02:23:32;;;;;;;17.13;8.45;;;;;;;8.32;100.00;95637.63;5065588;28;20114;-57
2022/12/12 02:26:41;;;;;;;12.15;7.10;;;;;;;8.41;100.00;95640.81;5065875;28;20087;-58
2022/12/12 02:29:33;;;;;;;12.85;6.90;;;;;;;8.25;100.00;95643.13;5064316;28;20148;-57
2022/12/12 02:32:12;;;;;;;16.98;7.95;;;;;;;8.33;100.00;95655.78;5063830;28;20485;-56
2022/12/12 02:34:50;;;;;;;14.70;7.03;;;;;;;7.94;100.00;95654.78;5065707;28;20052;-59
2022/12/12 02:37:47;;;;;;;16.17;7.15;;;;;;;8.07;100.00;95667.06;5065434;28;20487;-58
2022/12/12 02:40:35;;;;;;;26.90;10.75;;;;;;;8.02;100.00;95665.47;5057639;28;20056;-57
2022/12/12 02:43:27;;;;;;;19.90;9.80;;;;;;;8.00;100.00;95669.78;5065313;28;20598;-57
2022/12/12 02:46:02;;;;;;;17.23;8.13;;;;;;;8.12;100.00;95658.41;5065575;28;20135;-58
2022/12/12 02:48:35;;;;;;;16.73;8.93;;;;;;;8.14;100.00;95662.34;5065318;28;20844;-57
2022/12/12 02:51:05;;;;;;;19.17;11.20;;;;;;;8.08;100.00;95665.91;5065462;28;20052;-58
2022/12/12 02:53:32;;;;;;;18.70;10.00;;;;;;;8.04;100.00;95665.88;5065313;28;20048;-58
2022/12/12 02:56:08;;;;;;;15.52;9.77;;;;;;;8.04;100.00;95659.56;5065469;28;20135;-58
2022/12/12 02:58:37;;;;;;;15.07;8.30;;;;;;;7.97;100.00;95648.47;5063612;28;20515;-57
2022/12/12 03:01:14;;;;;;;21.83;8.55;;;;;;;7.56;100.00;95579.81;5063887;28;20156;-58
2022/12/12 03:09:44;;;;;;;29.75;8.75;;;;;;;8.20;100.00;95684.84;5064711;28;20048;-57
2022/12/12 03:12:21;;;;;;;29.38;9.20;;;;;;;8.29;100.00;95699.09;5064092;28;20148;-58
2022/12/12 03:14:59;;;;;;;20.83;8.95;;;;;;;8.32;100.00;95698.31;5064932;28;20056;-57
2022/12/12 03:17:44;;;;;;;20.10;9.05;;;;;;;8.29;100.00;95702.63;5063325;28;20140;-58
2022/12/12 03:20:27;;;;;;;27.10;8.20;;;;;;;8.19;100.00;95706.09;5064462;28;20148;-58
2022/12/12 03:22:56;;;;;;;31.65;8.93;;;;;;;8.20;100.00;95706.91;5064809;28;20109;-58
2022/12/12 03:25:46;;;;;;;23.75;9.43;;;;;;;7.87;100.00;95693.34;5064304;28;20422;-55
2022/12/12 03:28:37;;;;;;;24.05;9.45;;;;;;;7.58;100.00;95687.69;5064065;28;20067;-57
2022/12/12 03:31:08;;;;;;;20.95;9.38;;;;;;;7.44;100.00;95695.84;5062753;28;20078;-56
2022/12/12 03:33:43;;;;;;;25.63;9.55;;;;;;;7.18;100.00;95692.47;5064315;28;20052;-58
2022/12/12 03:36:54;;;;;;;18.70;8.73;;;;;;;7.37;100.00;95697.75;5064469;28;20048;-56
2022/12/12 03:39:46;;;;;;;20.00;8.07;;;;;;;7.54;100.00;95692.34;5059659;28;20052;-57
2022/12/12 03:42:29;;;;;;;16.58;6.75;;;;;;;7.62;100.00;95691.22;5055665;28;20507;-56
2022/12/12 03:45:08;;;;;;;12.18;5.78;;;;;;;7.65;100.00;95686.91;5062790;28;20052;-56
2022/12/12 03:47:57;;;;;;;11.35;4.95;;;;;;;7.31;100.00;95678.03;5062613;28;20082;-57
2022/12/12 03:50:32;;;;;;;9.07;4.97;;;;;;;6.87;100.00;95684.75;5064066;28;20683;-57
2022/12/12 03:53:18;;;;;;;16.33;5.40;;;;;;;6.76;100.00;95684.66;5063949;28;20083;-59
2022/12/12 03:56:00;;;;;;;8.77;4.10;;;;;;;6.92;100.00;95671.44;5063626;28;20140;-58
2022/12/12 03:58:32;;;;;;;9.27;4.57;;;;;;;7.05;100.00;95674.69;5062809;28;20052;-57
2022/12/12 04:01:03;;;;;;;11.10;4.80;;;;;;;7.21;100.00;95673.22;5064432;28;20057;-57
2022/12/12 04:03:54;;;;;;;9.05;5.65;;;;;;;5.50;100.00;95419.53;5063968;28;20159;-57
2022/12/12 04:06:34;;;;;;;8.10;4.55;;;;;;;7.19;100.00;95705.84;5062355;28;20131;-57
2022/12/12 04:15:33;;;;;;;11.07;5.97;;;;;;;7.28;100.00;95700.03;5062721;28;19982;-58
2022/12/12 04:18:19;;;;;;;11.07;6.65;;;;;;;7.32;100.00;95704.41;5063401;28;20080;-57
2022/12/12 04:24:15;;;;;;;12.82;6.68;;;;;;;7.49;100.00;95728.53;5063751;28;20144;-56
2022/12/12 04:27:06;;;;;;;18.70;8.18;;;;;;;7.50;100.00;95730.13;5047461;28;20053;-56
2022/12/12 04:30:06;;;;;;;29.30;11.45;;;;;;;7.61;100.00;95719.97;5047875;28;20049;-56
2022/12/12 04:33:10;;;;;;;14.27;7.55;;;;;;;7.62;100.00;95729.00;5047670;28;20596;-56
2022/12/12 04:35:48;;;;;;;13.77;6.57;;;;;;;7.45;100.00;95732.44;5004768;28;20054;-57
2022/12/12 04:38:23;;;;;;;13.48;6.68;;;;;;;7.15;100.00;95673.97;5043023;28;20547;-56
2022/12/12 04:40:54;;;;;;;13.88;7.47;;;;;;;7.65;100.00;95748.31;5047492;28;20122;-57
2022/12/12 04:43:39;;;;;;;11.82;6.78;;;;;;;7.80;100.00;95753.94;5047203;28;20472;-58
2022/12/12 04:46:11;;;;;;;9.80;5.47;;;;;;;7.73;100.00;95755.47;5047838;28;20083;-57
2022/12/12 04:48:45;;;;;;;9.50;5.75;;;;;;;7.66;100.00;95760.94;5047631;28;20131;-57
2022/12/12 04:51:15;;;;;;;10.73;5.63;;;;;;;7.65;100.00;95759.34;5047330;28;20053;-57
2022/12/12 04:53:48;;;;;;;8.60;5.05;;;;;;;7.67;100.00;95746.00;5047125;28;20136;-59
2022/12/12 04:56:22;;;;;;;11.07;5.90;;;;;;;7.63;100.00;95760.91;5047075;28;20056;-57
2022/12/12 04:58:49;;;;;;;10.73;6.05;;;;;;;7.37;100.00;95731.59;5047161;28;20305;-58
2022/12/12 05:01:24;;;;;;;11.27;6.28;;;;;;;7.69;100.00;95776.72;5046762;28;20603;-57
2022/12/12 05:03:56;;;;;;;9.20;5.63;;;;;;;7.15;100.00;95707.00;5047407;28;20084;-58
2022/12/12 05:06:49;;;;;;;14.97;7.67;;;;;;;7.65;100.00;95775.88;5047056;28;20143;-57
2022/12/12 05:09:17;;;;;;;16.15;8.35;;;;;;;7.43;100.00;95765.88;5047198;28;20098;-57
2022/12/12 05:11:44;;;;;;;11.07;8.15;;;;;;;7.55;100.00;95776.63;5047290;28;20084;-57
2022/12/12 05:14:14;;;;;;;14.45;8.27;;;;;;;7.38;100.00;95771.72;5046720;28;20049;-58
2022/12/12 05:16:46;;;;;;;14.95;9.07;;;;;;;7.42;100.00;95791.84;5046791;28;20056;-57
2022/12/12 05:19:13;;;;;;;22.35;12.38;;;;;;;6.95;100.00;95731.22;5046864;28;20078;-59
2022/12/12 05:21:40;;;;;;;22.90;13.50;;;;;;;7.24;100.00;95781.84;5046595;28;20581;-59
2022/12/12 05:24:06;;;;;;;21.98;12.95;;;;;;;6.98;100.00;95741.47;5045405;28;20130;-58
2022/12/12 05:26:34;;;;;;;23.60;13.93;;;;;;;7.28;100.00;95794.47;5065563;28;20502;-58
2022/12/12 05:29:02;;;;;;;65.55;32.45;;;;;;;7.27;100.00;95792.88;5066289;28;20071;-57
2022/12/12 05:31:33;;;;;;;44.53;27.15;;;;;;;7.38;100.00;95798.50;5066583;28;20056;-56
2022/12/12 05:34:00;;;;;;;30.52;16.90;;;;;;;7.10;100.00;95804.50;5066586;28;20469;-57
2022/12/12 05:36:26;;;;;;;20.60;12.48;;;;;;;6.12;100.00;95753.84;5065366;28;20061;-59
2022/12/12 05:38:53;;;;;;;26.10;14.30;;;;;;;6.80;100.00;95823.06;5066191;28;20135;-57
2022/12/12 05:41:20;;;;;;;25.73;16.30;;;;;;;6.96;100.00;95826.38;5065082;28;20135;-59
2022/12/12 05:43:46;;;;;;;31.65;15.52;;;;;;;6.96;100.00;95831.91;5065015;28;20410;-57
2022/12/12 05:46:13;;;;;;;31.05;15.77;;;;;;;6.87;100.00;95828.66;5066154;28;20507;-57
2022/12/12 05:48:40;;;;;;;31.73;16.25;;;;;;;7.08;100.00;95834.38;5066522;28;20062;-57
2022/12/12 05:51:06;;;;;;;25.27;12.70;;;;;;;7.08;100.00;95839.88;5066521;28;20494;-58
2022/12/12 05:53:33;;;;;;;27.65;11.60;;;;;;;7.02;100.00;95833.13;5066151;28;20565;-57
2022/12/12 05:56:10;;;;;;;18.52;10.77;;;;;;;6.89;100.00;95820.03;5065116;28;20053;-56
2022/12/12 05:58:38;;;;;;;21.75;12.38;;;;;;;6.98;100.00;95846.09;5065141;28;20105;-57
2022/12/12 06:01:05;;;;;;;29.38;17.77;;;;;;;6.86;100.00;95827.06;5066397;28;20127;-57
2022/12/12 06:03:32;;;;;;;32.70;17.73;;;;;;;7.04;100.00;95850.06;5064729;28;20127;-56
2022/12/12 06:05:59;;;;;;;57.85;19.77;;;;;;;6.65;100.00;95804.81;5065820;28;20139;-56
2022/12/12 06:08:25;;;;;;;85.75;20.50;;;;;;;6.89;100.00;95851.06;5064131;28;20152;-57
2022/12/12 06:10:52;;;;;;;167.00;24.42;;;;;;;6.37;100.00;95796.19;5064196;28;20114;-58
2022/12/12 06:13:22;;;;;;;98.50;16.30;;;;;;;6.87;100.00;95872.69;5065630;28;20117;-56
2022/12/12 06:15:49;;;;;;;89.22;17.45;;;;;;;6.30;100.00;95870.34;5064222;28;20132;-56
2022/12/12 06:18:15;;;;;;;90.75;11.93;;;;;;;6.23;100.00;95878.50;5065942;28;20617;-56
2022/12/12 06:20:42;;;;;;;111.50;11.90;;;;;;;6.32;100.00;95862.53;5065781;28;20461;-56
2022/12/12 06:23:09;;;;;;;120.72;12.23;;;;;;;6.43;100.00;95871.72;5065698;28;20148;-60
2022/12/12 06:25:35;;;;;;;105.47;13.65;;;;;;;6.52;100.00;95872.22;5065194;28;20090;-57
2022/12/12 06:28:02;;;;;;;38.55;10.68;;;;;;;6.62;100.00;95876.28;5065442;28;20048;-59
2022/12/12 06:30:29;;;;;;;46.17;12.40;;;;;;;6.67;100.00;95868.50;5064012;28;20048;-57
2022/12/12 06:32:55;;;;;;;46.33;10.95;;;;;;;6.83;100.00;95860.84;5065280;28;20619;-57
2022/12/12 06:35:22;;;;;;;49.80;12.60;;;;;;;6.95;100.00;95857.84;5065621;28;20048;-56
2022/12/12 06:37:49;;;;;;;42.47;15.68;;;;;;;6.93;100.00;95860.19;5065824;28;20167;-57
2022/12/12 06:40:20;;;;;;;40.85;18.38;;;;;;;7.08;100.00;95872.16;5065510;28;20266;-57
2022/12/12 06:42:48;;;;;;;;;;;;;;;7.18;100.00;95872.25;5048151;28;20515;-60
2022/12/12 06:45:16;;;;;;;70.43;32.90;;;;;;;7.31;100.00;95876.34;5065371;28;19924;-57
2022/12/12 06:47:43;;;;;;;41.80;18.63;;;;;;;7.42;100.00;95910.28;5064209;28;20053;-57
2022/12/12 06:50:10;;;;;;;31.98;16.00;;;;;;;7.52;100.00;95882.03;5065155;28;20898;-57
2022/12/12 06:52:37;;;;;;;21.83;11.95;;;;;;;7.57;100.00;95889.19;5064996;28;20088;-57
2022/12/12 06:55:04;;;;;;;18.85;9.82;;;;;;;7.02;100.00;95789.09;5063747;28;20068;-57
2022/12/12 06:57:30;;;;;;;35.95;13.95;;;;;;;5.25;100.00;95561.19;5058912;28;20139;-60
2022/12/12 06:59:57;;;;;;;36.85;15.38;;;;;;;7.05;100.00;95777.31;5063914;28;20495;-58
2022/12/12 07:02:24;;;;;;;45.90;18.88;;;;;;;7.88;100.00;95898.91;5062896;28;20514;-60
2022/12/12 07:04:57;;;;;;;23.05;11.25;;;;;;;7.99;100.00;95916.34;5061152;28;20045;-60
2022/12/12 07:07:23;;;;;;;31.15;16.20;;;;;;;7.22;100.00;95795.97;5064236;28;20091;-62
2022/12/12 07:09:50;;;;;;;35.33;18.05;;;;;;;6.80;100.00;95729.50;5062619;28;20072;-56
2022/12/12 07:12:17;;;;;;;37.35;22.45;;;;;;;8.10;100.00;95917.22;5061478;28;20060;-61
2022/12/12 07:14:43;;;;;;;50.47;15.82;;;;;;;5.37;100.00;95519.78;5064366;28;20597;-58
2022/12/12 07:17:10;;;;;;;55.33;13.98;;;;;;;6.53;100.00;95719.78;5063420;28;20080;-58
2022/12/12 07:19:37;;;;;;;65.85;14.80;;;;;;;7.71;100.00;95923.16;5064062;28;20048;-60
2022/12/12 07:22:03;;;;;;;16.52;9.93;;;;;;;7.70;100.00;95929.88;5064072;28;20166;-59
2022/12/12 07:24:35;;;;;;;18.55;9.70;;;;;;;7.71;100.00;95923.16;5064385;28;20055;-57
2022/12/12 07:27:02;;;;;;;29.25;13.10;;;;;;;7.71;100.00;95927.91;5063849;28;20496;-57
2022/12/12 07:29:29;;;;;;;25.08;12.93;;;;;;;6.52;100.00;95762.22;5063186;28;20864;-59
2022/12/12 07:31:55;;;;;;;33.20;10.35;;;;;;;7.57;100.00;95933.28;5063804;28;20112;-60
2022/12/12 07:34:22;;;;;;;17.02;8.65;;;;;;;7.50;100.00;95917.47;5064040;28;20114;-60
2022/12/12 07:36:49;;;;;;;34.53;16.65;;;;;;;7.71;100.00;95945.22;5063766;28;20044;-59
2022/12/12 07:39:15;;;;;;;42.45;18.42;;;;;;;7.77;100.00;95942.13;5063386;28;20070;-55
2022/12/12 07:41:46;;;;;;;25.30;14.07;;;;;;;7.82;100.00;95939.03;5063794;28;20095;-60
2022/12/12 07:44:14;;;;;;;23.27;13.10;;;;;;;7.95;100.00;95937.59;5063420;28;20056;-59
2022/12/12 07:46:41;;;;;;;30.50;12.88;;;;;;;7.86;100.00;95934.31;5061648;28;20420;-58
2022/12/12 07:49:08;;;;;;;17.42;9.57;;;;;;;7.94;100.00;95947.00;5062700;28;20049;-60
2022/12/12 07:51:35;;;;;;;106.82;31.63;;;;;;;7.43;100.00;95883.53;5063103;28;20530;-57
2022/12/12 07:54:01;;;;;;;40.78;15.38;;;;;;;7.73;100.00;95940.13;5061350;28;20044;-59
2022/12/12 07:56:28;;;;;;;39.88;9.98;;;;;;;8.02;100.00;95948.66;5063231;28;20392;-60
2022/12/12 07:58:55;;;;;;;25.33;7.38;;;;;;;8.03;100.00;96005.41;5063482;28;20527;-59
2022/12/12 08:01:24;;;;;;;15.48;6.55;;;;;;;8.12;100.00;95956.25;5062564;28;20523;-62
2022/12/12 08:03:52;;;;;;;10.38;7.00;;;;;;;7.93;100.00;95912.34;5061764;28;20044;-59
2022/12/12 08:06:20;;;;;;;10.30;6.38;;;;;;;7.70;100.00;95896.78;5062718;28;20481;-60
2022/12/12 08:08:48;;;;;;;13.00;6.90;;;;;;;8.07;100.00;95962.09;5062433;28;20041;-56
2022/12/12 08:11:17;;;;;;;12.15;6.78;;;;;;;7.27;100.00;95911.28;5062683;28;20059;-59
2022/12/12 08:13:44;;;;;;;10.80;7.10;;;;;;;7.34;100.00;95913.34;5043417;28;20049;-57
2022/12/12 08:16:16;;;;;;;10.65;6.72;;;;;;;8.23;100.00;95987.50;5043547;28;20119;-56
2022/12/12 08:18:43;;;;;;;12.60;8.18;;;;;;;8.30;100.00;95982.06;5043176;28;20111;-60
2022/12/12 08:21:11;;;;;;;55.88;20.02;;;;;;;8.44;100.00;95984.94;5043253;28;20948;-58
2022/12/12 08:23:39;;;;;;;14.18;8.52;;;;;;;8.40;100.00;95986.84;5057627;28;20322;-62
2022/12/12 08:26:09;;;;;;;14.70;8.30;;;;;;;8.43;100.00;95997.13;5062689;28;20499;-55
2022/12/12 08:28:36;;;;;;;19.95;11.10;;;;;;;7.93;100.00;95959.22;5060176;28;20272;-60
2022/12/12 08:31:03;;;;;;;18.20;10.02;;;;;;;8.40;100.00;95997.88;5056700;28;20524;-59
2022/12/12 08:33:30;;;;;;;17.70;10.18;;;;;;;8.44;100.00;95954.56;5054072;28;20044;-60
2022/12/12 08:35:57;;;;;;;18.45;11.07;;;;;;;8.92;100.00;95997.47;5070060;28;20044;-59
2022/12/12 08:38:24;;;;;;;16.95;10.30;;;;;;;8.65;100.00;95921.59;5067323;28;20113;-62
2022/12/12 08:40:51;;;;;;;18.80;11.95;;;;;;;9.21;100.00;95983.44;5061594;28;20110;-59
2022/12/12 08:43:17;;;;;;;16.48;11.55;;;;;;;9.28;99.06;95999.28;5062819;28;20215;-57
2022/12/12 08:45:45;;;;;;;19.48;9.88;;;;;;;8.34;99.57;95867.78;5063160;28;20120;-61
2022/12/12 08:48:12;;;;;;;19.02;11.32;;;;;;;9.31;99.19;96004.00;5062397;28;20052;-56
2022/12/12 08:50:40;;;;;;;17.75;11.07;;;;;;;8.61;100.00;95865.59;5061947;28;20831;-60
2022/12/12 08:53:06;;;;;;;19.75;12.35;;;;;;;9.74;99.53;95993.91;5057854;28;20569;-59
2022/12/12 08:55:33;;;;;;;19.00;12.38;;;;;;;9.90;98.10;95997.13;5061707;28;20052;-60
2022/12/12 08:58:00;;;;;;;13.38;8.80;;;;;;;9.82;95.57;95996.31;5050088;28;20120;-57
2022/12/12 09:00:26;;;;;;;13.63;8.80;;;;;;;9.89;95.40;95990.84;5059920;28;20087;-58
2022/12/12 09:02:53;;;;;;;15.57;10.25;;;;;;;9.94;96.06;95998.72;5062703;28;20045;-59
2022/12/12 09:05:20;;;;;;;12.23;8.60;;;;;;;9.49;96.57;95921.97;5061162;28;20052;-60
2022/12/12 09:07:46;;;;;;;17.85;11.70;;;;;;;9.86;97.15;95939.06;5062126;28;20585;-55
2022/12/12 09:10:13;;;;;;;14.18;9.68;;;;;;;10.28;95.71;95968.78;5060222;28;20120;-55
2022/12/12 09:12:40;;;;;;;13.68;9.48;;;;;;;10.64;94.49;95998.84;5065807;28;20857;-56
2022/12/12 09:15:08;;;;;;;14.75;10.70;;;;;;;10.52;93.80;95985.41;5065867;28;20087;-60
2022/12/12 09:17:35;;;;;;;14.80;10.93;;;;;;;10.39;93.50;95953.75;5065241;28;20785;-63
2022/12/12 09:20:02;;;;;;;17.20;11.13;;;;;;;11.25;93.93;95994.81;5065966;28;20052;-59
2022/12/12 09:22:29;;;;;;;19.10;13.27;;;;;;;11.30;91.63;95952.78;5065872;28;20138;-59
2022/12/12 09:24:55;;;;;;;19.50;12.82;;;;;;;11.47;89.86;95967.81;5065772;28;20758;-61
2022/12/12 09:27:22;;;;;;;15.10;12.63;;;;;;;11.38;88.77;95987.63;5064511;28;20079;-56
2022/12/12 09:29:48;;;;;;;17.58;12.43;;;;;;;11.59;89.36;95995.06;5064201;28;20303;-57
2022/12/12 09:32:15;;;;;;;14.88;12.18;;;;;;;10.95;88.57;95905.03;5063539;28;20477;-56
2022/12/12 09:34:50;;;;;;;20.20;13.07;;;;;;;11.72;87.84;95988.72;5065641;28;20052;-60
2022/12/12 09:37:16;;;;;;;18.38;14.00;;;;;;;11.60;88.27;95938.44;5064288;28;20044;-60
2022/12/12 09:39:43;;;;;;;16.83;11.75;;;;;;;11.50;87.39;95903.22;5065489;28;20634;-60
2022/12/12 09:42:25;;;;;;;18.55;12.95;;;;;;;11.30;85.21;95852.22;5065408;28;20060;-60
2022/12/12 09:44:56;;;;;;;17.13;11.70;;;;;;;12.00;86.16;95973.91;5065845;28;20048;-58
2022/12/12 09:47:35;;;;;;;33.25;19.75;;;;;;;11.82;87.99;95978.78;5065393;28;20048;-56
2022/12/12 09:50:15;;;;;;;17.85;11.50;;;;;;;11.69;86.79;95947.13;5064834;28;20084;-58
2022/12/12 09:52:43;;;;;;;13.55;9.38;;;;;;;11.39;88.11;95935.75;5056673;28;20056;-57
2022/12/12 09:55:19;;;;;;;14.00;9.95;;;;;;;11.65;86.89;95972.09;5060806;28;20058;-59
2022/12/12 09:57:57;;;;;;;12.88;10.10;;;;;;;10.78;86.64;95858.78;5066227;28;20102;-58
2022/12/12 10:00:26;;;;;;;12.77;9.55;;;;;;;11.37;84.82;95885.44;5052255;28;20083;-59
2022/12/12 10:03:21;;;;;;;12.77;8.20;;;;;;;12.17;82.77;95957.13;5048921;28;20095;-58
2022/12/12 10:06:08;;;;;;;12.18;9.00;;;;;;;11.51;84.63;95852.09;5065663;28;20465;-58
2022/12/12 10:09:24;;;;;;;14.45;10.45;;;;;;;12.11;84.03;95924.66;5063853;28;20058;-59
2022/12/12 10:11:53;;;;;;;14.30;8.73;;;;;;;12.70;83.61;95951.19;5065158;28;20453;-58
2022/12/12 10:14:30;;;;;;;11.48;8.05;;;;;;;12.74;81.78;95951.94;5063569;28;20317;-57
2022/12/12 10:16:58;;;;;;;8.75;6.85;;;;;;;12.40;79.91;95953.81;5063663;28;20404;-57
2022/12/12 10:19:28;;;;;;;7.82;6.18;;;;;;;12.40;80.78;95942.69;5065531;28;20143;-58
2022/12/12 10:22:03;;;;;;;7.22;5.25;;;;;;;12.42;79.63;95945.06;5065877;28;20442;-58
2022/12/12 10:24:41;;;;;;;7.15;5.60;;;;;;;12.42;81.30;95920.88;5065152;28;20048;-58
2022/12/12 10:27:13;;;;;;;9.05;6.32;;;;;;;12.28;79.70;95906.31;5064724;28;20076;-58
2022/12/12 10:29:46;;;;;;;38.25;21.70;;;;;;;12.49;81.17;95939.47;5065144;28;20481;-58
2022/12/12 10:32:18;;;;;;;35.07;20.17;;;;;;;12.45;79.94;95950.59;5064383;28;20060;-59
2022/12/12 10:34:54;;;;;;;14.30;9.18;;;;;;;12.60;80.13;95934.63;5063268;28;20412;-58
2022/12/12 10:37:51;;;;;;;16.27;10.27;;;;;;;12.47;80.45;95873.19;5064597;28;20113;-58
2022/12/12 10:40:33;;;;;;;22.30;15.15;;;;;;;12.95;80.47;95935.06;5062506;28;20577;-57
2022/12/12 10:43:02;;;;;;;13.23;7.97;;;;;;;13.22;78.42;95933.22;5063982;28;20053;-59
2022/12/12 10:45:48;;;;;;;8.63;6.55;;;;;;;13.62;77.77;95912.06;5062540;28;20053;-56
2022/12/12 10:48:15;;;;;;;12.57;8.35;;;;;;;14.05;76.22;95923.41;5064295;28;20420;-61
2022/12/12 10:50:47;;;;;;;11.27;7.38;;;;;;;13.98;75.78;95917.91;5063303;28;20127;-61
2022/12/12 10:53:14;;;;;;;10.10;6.63;;;;;;;14.02;74.46;95918.69;5064812;28;20473;-61
2022/12/12 10:55:57;;;;;;;12.70;11.00;;;;;;;14.10;74.80;95915.34;5064810;28;20078;-57
2022/12/12 10:58:25;;;;;;;7.82;6.03;;;;;;;13.81;73.72;95868.88;5064397;28;20465;-60
2022/12/12 11:01:01;;;;;;;5.40;4.90;;;;;;;13.92;74.74;95878.66;5062760;28;20110;-60
2022/12/12 11:03:33;;;;;;;6.85;4.65;;;;;;;13.73;73.10;95906.34;5062230;28;20126;-60
2022/12/12 11:06:05;;;;;;;4.53;3.33;;;;;;;12.75;75.49;95820.16;5063188;28;20076;-60
2022/12/12 11:08:35;;;;;;;6.88;5.22;;;;;;;12.85;78.06;95891.47;5063986;28;20190;-59
2022/12/12 11:11:21;;;;;;;4.95;3.80;;;;;;;13.21;79.00;95900.25;5064445;28;20053;-59
2022/12/12 11:14:00;;;;;;;5.63;4.53;;;;;;;13.19;78.90;95906.22;5064174;28;20142;-57
2022/12/12 11:16:28;;;;;;;7.60;5.22;;;;;;;13.31;79.45;95908.47;5062252;28;20135;-56
2022/12/12 11:18:58;;;;;;;25.25;18.27;;;;;;;13.31;79.70;95897.34;5063974;28;20064;-58
2022/12/12 11:21:26;;;;;;;4.50;4.07;;;;;;;13.21;77.27;95887.16;5062099;28;20084;-58
2022/12/12 11:23:55;;;;;;;7.93;6.03;;;;;;;13.44;76.75;95900.38;5063725;28;20044;-57
2022/12/12 11:26:23;;;;;;;3.58;3.28;;;;;;;13.27;75.73;95870.78;5064377;28;20053;-60
2022/12/12 11:29:02;;;;;;;4.10;3.70;;;;;;;13.74;75.76;95903.16;5062044;28;20087;-56
2022/12/12 11:31:32;;;;;;;4.07;3.25;;;;;;;13.94;75.56;95889.34;5063868;28;20049;-57
2022/12/12 11:34:05;;;;;;;4.55;3.60;;;;;;;13.86;73.29;95893.44;5063083;28;20048;-57
2022/12/12 11:36:36;;;;;;;4.63;2.85;;;;;;;13.84;72.37;95901.44;5063763;28;20118;-57
2022/12/12 11:39:40;;;;;;;3.95;2.63;;;;;;;13.75;73.71;95892.81;5063936;28;20486;-56
2022/12/12 11:42:12;;;;;;;3.75;2.72;;;;;;;13.39;73.51;95901.63;5020526;28;20052;-59
2022/12/12 11:44:40;;;;;;;4.70;2.70;;;;;;;13.10;76.87;95892.03;5063362;28;20048;-61
2022/12/12 11:47:28;;;;;;;7.63;4.85;;;;;;;13.15;76.79;95843.53;5061487;28;20126;-59
2022/12/12 11:49:58;;;;;;;68.50;35.15;;;;;;;13.86;75.99;95883.13;5062654;28;20098;-56
2022/12/12 11:52:30;;;;;;;6.40;4.65;;;;;;;13.89;72.53;95887.84;5061296;28;20063;-55
2022/12/12 11:54:58;;;;;;;6.13;3.33;;;;;;;13.59;72.58;95852.47;5063337;28;20084;-58
2022/12/12 11:57:42;;;;;;;5.70;3.45;;;;;;;13.01;72.54;95772.19;5063132;28;20373;-60
2022/12/12 12:00:21;;;;;;;5.20;3.50;;;;;;;13.38;73.49;95868.66;5061695;28;20158;-60
2022/12/12 12:03:16;;;;;;;9.45;4.40;;;;;;;13.02;74.75;95871.09;5062693;28;20090;-60